Time;durP1;ratioP1;P1;durP2;ratioP2;P2;SDS_P1;SDS_P2;PMS_P1;PMS_P2;Temp;Humidity;BMP_temperature;BMP_pressure;BME280_temperature;BME280_humidity;BME280_pressure;Samples;Min_cycle;Max_cycle;Signal;HPM_P1;HPM_P2
2021/12/24 00:00:42;;;;;;;25.70;15.17;;;5.90;99.90;;;;;;5009556;28;20045;-31
2021/12/24 00:03:08;;;;;;;26.50;15.23;;;5.90;99.90;;;;;;5009049;28;20057;-31
2021/12/24 00:05:35;;;;;;;25.63;15.07;;;5.90;99.90;;;;;;5001056;28;20048;-30
2021/12/24 00:08:01;;;;;;;23.57;14.60;;;6.00;99.90;;;;;;4975489;28;20137;-31
2021/12/24 00:10:27;;;;;;;26.53;14.83;;;6.00;99.90;;;;;;4988432;28;20144;-31
2021/12/24 00:13:01;;;;;;;21.17;13.47;;;5.90;99.90;;;;;;4990860;28;20050;-31
2021/12/24 00:18:17;;;;;;;28.53;14.93;;;6.00;99.90;;;;;;4992639;28;20058;-31
2021/12/24 00:37:03;;;;;;;21.30;12.97;;;6.10;99.90;;;;;;4993346;28;20075;-31
2021/12/24 00:39:29;;;;;;;22.53;12.93;;;6.10;99.90;;;;;;5008749;28;20046;-31
2021/12/24 00:41:55;;;;;;;20.63;12.30;;;6.10;99.90;;;;;;5008660;28;20059;-31
2021/12/24 00:44:20;;;;;;;23.03;12.77;;;6.20;99.90;;;;;;5007680;28;20050;-31
2021/12/24 00:46:46;;;;;;;22.87;12.50;;;6.20;99.90;;;;;;4993595;28;20072;-31
2021/12/24 00:49:12;;;;;;;19.87;11.73;;;6.20;99.90;;;;;;5007430;28;20042;-31
2021/12/24 00:52:07;;;;;;;19.10;11.27;;;6.20;99.90;;;;;;5008469;28;20038;-31
2021/12/24 00:57:10;;;;;;;19.87;11.53;;;6.20;99.90;;;;;;4992152;28;20104;-31
2021/12/24 00:59:36;;;;;;;20.07;12.27;;;6.20;99.90;;;;;;5007959;28;20045;-31
2021/12/24 01:02:04;;;;;;;19.13;11.57;;;6.30;99.90;;;;;;5004476;28;20056;-31
2021/12/24 01:04:30;;;;;;;19.87;12.03;;;6.20;99.90;;;;;;5002182;28;20073;-31
2021/12/24 01:06:56;;;;;;;20.00;11.00;;;6.30;99.90;;;;;;4974796;28;20112;-31
2021/12/24 01:09:21;;;;;;;20.40;11.40;;;6.30;99.90;;;;;;5007270;28;20045;-31
2021/12/24 01:11:47;;;;;;;21.60;11.20;;;6.30;99.90;;;;;;5008709;28;20548;-31
2021/12/24 01:14:13;;;;;;;17.53;10.60;;;6.30;99.90;;;;;;5005769;28;20050;-31
2021/12/24 01:16:53;;;;;;;17.47;11.07;;;6.30;99.90;;;;;;4994382;28;20049;-31
2021/12/24 01:19:23;;;;;;;19.63;10.67;;;6.30;99.90;;;;;;5007307;28;20061;-31
2021/12/24 01:24:28;;;;;;;15.73;9.70;;;6.30;99.90;;;;;;5007434;28;20061;-31
2021/12/24 01:27:07;;;;;;;17.13;9.60;;;6.40;99.90;;;;;;4974814;28;20527;-31
2021/12/24 01:30:05;;;;;;;17.63;9.43;;;6.40;99.90;;;;;;5007093;28;20046;-31
2021/12/24 01:38:14;;;;;;;15.83;8.73;;;6.40;99.90;;;;;;4998916;28;20052;-31
2021/12/24 01:43:08;;;;;;;15.20;8.93;;;6.50;99.90;;;;;;5013456;28;20101;-32
2021/12/24 01:45:36;;;;;;;15.33;8.37;;;6.50;99.90;;;;;;4980282;28;20048;-31
2021/12/24 01:48:07;;;;;;;15.97;8.27;;;6.50;99.90;;;;;;4997923;28;20254;-31
2021/12/24 01:50:36;;;;;;;19.33;9.10;;;6.50;99.90;;;;;;5014289;28;20053;-31
2021/12/24 01:53:04;;;;;;;16.10;8.63;;;6.60;99.90;;;;;;4989592;28;20559;-30
2021/12/24 01:55:30;;;;;;;12.73;7.57;;;6.60;99.90;;;;;;5014414;28;20424;-31
2021/12/24 01:57:56;;;;;;;13.23;7.37;;;6.70;99.90;;;;;;4998104;28;20043;-31
2021/12/24 02:00:26;;;;;;;14.07;6.93;;;6.70;99.90;;;;;;5014094;28;20520;-31
2021/12/24 02:02:52;;;;;;;13.63;7.70;;;6.70;99.90;;;;;;5013410;28;20564;-31
2021/12/24 02:05:18;;;;;;;12.20;6.87;;;6.70;99.90;;;;;;5006090;28;20425;-31
2021/12/24 02:07:45;;;;;;;11.77;6.97;;;6.70;99.90;;;;;;4997936;28;20075;-31
2021/12/24 02:10:14;;;;;;;9.30;6.23;;;6.80;99.90;;;;;;5004317;28;20521;-31
2021/12/24 02:12:40;;;;;;;8.33;5.80;;;6.80;99.90;;;;;;4993818;28;20149;-31
2021/12/24 02:15:12;;;;;;;10.73;5.87;;;6.80;99.90;;;;;;5003747;28;20041;-31
2021/12/24 02:18:04;;;;;;;9.23;5.83;;;6.80;99.90;;;;;;4997770;28;20592;-31
2021/12/24 02:28:44;;;;;;;9.60;5.63;;;6.90;99.90;;;;;;4988511;28;20126;-32
2021/12/24 02:31:16;;;;;;;9.37;5.80;;;6.90;99.90;;;;;;4994582;28;20038;-31
2021/12/24 02:33:42;;;;;;;9.27;6.07;;;6.90;99.90;;;;;;4993621;28;20057;-31
2021/12/24 02:36:09;;;;;;;10.10;5.93;;;6.90;99.90;;;;;;4983239;28;20046;-32
2021/12/24 02:38:36;;;;;;;9.90;5.93;;;7.00;99.90;;;;;;4967375;28;20058;-32
2021/12/24 02:41:03;;;;;;;10.10;6.03;;;7.00;99.90;;;;;;4957264;28;20050;-31
2021/12/24 02:43:29;;;;;;;13.27;6.87;;;7.00;99.90;;;;;;4972414;28;20051;-31
2021/12/24 02:45:59;;;;;;;11.20;6.70;;;7.00;99.90;;;;;;4971722;28;20093;-31
2021/12/24 02:48:56;;;;;;;10.60;6.67;;;7.00;99.90;;;;;;4955232;28;20522;-31
2021/12/24 02:56:25;;;;;;;18.27;8.50;;;7.10;99.90;;;;;;4979950;28;20046;-31
2021/12/24 02:58:51;;;;;;;16.00;8.53;;;7.10;99.90;;;;;;4969525;28;20049;-31
2021/12/24 03:01:23;;;;;;;17.57;9.40;;;7.10;99.90;;;;;;4988491;28;20121;-31
2021/12/24 03:03:49;;;;;;;19.77;9.83;;;7.20;99.90;;;;;;4954603;28;20038;-31
2021/12/24 03:06:16;;;;;;;19.73;10.67;;;7.20;99.90;;;;;;4957606;28;20129;-31
2021/12/24 03:08:42;;;;;;;19.43;9.90;;;7.20;99.90;;;;;;4985345;28;20054;-32
2021/12/24 03:11:07;;;;;;;22.27;10.83;;;7.30;99.90;;;;;;4973040;28;20130;-31
2021/12/24 03:13:35;;;;;;;23.60;11.77;;;7.10;99.90;;;;;;4970832;28;20054;-32
2021/12/24 03:16:02;;;;;;;27.03;12.27;;;7.20;99.90;;;;;;4988128;28;20046;-31
2021/12/24 03:18:32;;;;;;;31.03;13.13;;;7.40;99.90;;;;;;4974401;28;20068;-32
2021/12/24 03:21:07;;;;;;;33.45;13.20;;;7.30;99.90;;;;;;4990833;28;20050;-32
2021/12/24 03:26:19;;;;;;;39.73;14.93;;;7.30;99.90;;;;;;4938932;28;20037;-31
2021/12/24 03:28:45;;;;;;;49.00;16.53;;;7.30;99.90;;;;;;5004564;28;20041;-32
2021/12/24 03:31:11;;;;;;;59.23;18.67;;;7.30;99.90;;;;;;5010140;28;20456;-31
2021/12/24 03:33:37;;;;;;;59.20;19.87;;;7.50;99.90;;;;;;4991756;28;20221;-31
2021/12/24 03:36:07;;;;;;;66.17;19.83;;;7.40;99.90;;;;;;5009949;28;20045;-31
2021/12/24 03:38:34;;;;;;;67.43;20.80;;;7.40;99.90;;;;;;4983064;28;20054;-31
2021/12/24 03:41:00;;;;;;;68.73;20.50;;;7.50;99.90;;;;;;5009767;28;20076;-31
2021/12/24 03:43:26;;;;;;;74.60;21.57;;;7.50;99.90;;;;;;5009151;28;20069;-32
2021/12/24 03:48:38;;;;;;;66.40;21.20;;;7.50;99.90;;;;;;4993288;28;20041;-31
2021/12/24 03:51:23;;;;;;;65.60;20.53;;;7.50;99.90;;;;;;5006616;28;20514;-31
2021/12/24 03:56:36;;;;;;;71.00;21.30;;;7.50;99.90;;;;;;4975989;28;20317;-31
2021/12/24 03:59:02;;;;;;;85.90;23.07;;;7.50;99.90;;;;;;4987580;28;20042;-31
2021/12/24 04:01:28;;;;;;;99.57;24.17;;;7.60;99.90;;;;;;5004237;28;20050;-31
2021/12/24 04:03:53;;;;;;;79.03;23.37;;;7.60;99.90;;;;;;4990932;28;20441;-31
2021/12/24 04:06:19;;;;;;;100.80;26.73;;;7.60;99.90;;;;;;4980587;28;20137;-31
2021/12/24 04:08:45;;;;;;;91.63;25.80;;;7.60;99.90;;;;;;5003798;28;20404;-31
2021/12/24 04:11:11;;;;;;;105.13;25.10;;;7.70;99.90;;;;;;5027137;28;20050;-32
2021/12/24 04:13:38;;;;;;;93.13;26.50;;;7.70;99.90;;;;;;5028063;28;20044;-32
2021/12/24 04:16:05;;;;;;;87.40;23.97;;;7.70;99.90;;;;;;5010716;28;20588;-31
2021/12/24 04:26:26;;;;;;;74.20;23.63;;;7.80;99.90;;;;;;4976822;28;20524;-31
2021/12/24 04:28:52;;;;;;;73.13;24.53;;;7.80;99.90;;;;;;4985268;28;20046;-32
2021/12/24 04:31:23;;;;;;;76.40;23.67;;;7.80;99.90;;;;;;4989500;28;20050;-31
2021/12/24 04:33:50;;;;;;;64.83;24.73;;;7.80;99.90;;;;;;4988711;28;20038;-32
2021/12/24 04:39:08;;;;;;;73.43;26.47;;;7.80;99.90;;;;;;4985949;28;20089;-31
2021/12/24 05:03:23;;;;;;;86.43;32.53;;;8.10;99.90;;;;;;5005171;28;20149;-31
2021/12/24 05:05:53;;;;;;;84.93;30.43;;;8.10;99.90;;;;;;5007025;28;20052;-32
2021/12/24 05:08:24;;;;;;;82.23;30.57;;;8.10;99.90;;;;;;4991230;28;20085;-32
2021/12/24 05:10:51;;;;;;;53.67;22.05;;;8.10;99.90;;;;;;5023658;28;20493;-31
2021/12/24 05:13:19;;;;;;;70.17;28.27;;;8.10;99.90;;;;;;5027405;28;20045;-32
2021/12/24 05:15:48;;;;;;;70.27;29.60;;;8.10;99.90;;;;;;4995027;28;20049;-31
2021/12/24 05:23:25;;;;;;;72.30;30.43;;;8.20;99.90;;;;;;4998642;28;20045;-32
2021/12/24 05:25:51;;;;;;;80.53;30.93;;;8.20;99.90;;;;;;4970658;28;20490;-33
2021/12/24 05:28:18;;;;;;;75.60;30.83;;;8.30;99.90;;;;;;4972335;28;20050;-31
2021/12/24 05:30:45;;;;;;;73.80;30.93;;;8.30;99.90;;;;;;4988418;28;20046;-31
2021/12/24 05:33:15;;;;;;;75.20;29.20;;;8.20;99.90;;;;;;4987629;28;20422;-32
2021/12/24 05:35:43;;;;;;;69.07;28.87;;;8.30;99.90;;;;;;4988665;28;20052;-32
2021/12/24 05:38:08;;;;;;;71.70;27.93;;;8.20;99.90;;;;;;4972992;28;20418;-32
2021/12/24 05:40:35;;;;;;;69.80;26.50;;;8.30;99.90;;;;;;5001453;28;20052;-32
2021/12/24 05:43:00;;;;;;;69.10;25.27;;;8.30;99.90;;;;;;5005812;28;20053;-32
2021/12/24 05:45:26;;;;;;;69.30;25.10;;;8.30;99.90;;;;;;5006427;28;20514;-31
2021/12/24 05:47:52;;;;;;;61.43;23.07;;;8.20;99.90;;;;;;4991583;28;20046;-31
2021/12/24 05:50:18;;;;;;;59.60;22.63;;;8.30;99.90;;;;;;5007693;28;20073;-32
2021/12/24 05:52:43;;;;;;;61.23;23.57;;;8.30;99.90;;;;;;5005774;28;20042;-31
2021/12/24 05:55:10;;;;;;;56.93;20.97;;;8.30;99.90;;;;;;5007758;28;20356;-32
2021/12/24 05:57:36;;;;;;;55.83;21.03;;;8.30;99.90;;;;;;4991751;28;20046;-32
2021/12/24 06:00:05;;;;;;;56.40;19.80;;;8.20;99.90;;;;;;5008634;28;20048;-31
2021/12/24 06:02:32;;;;;;;56.10;20.23;;;8.30;99.90;;;;;;5008001;28;20551;-32
2021/12/24 06:04:58;;;;;;;63.60;20.13;;;8.30;99.90;;;;;;5004003;28;20045;-32
2021/12/24 06:07:23;;;;;;;57.43;18.40;;;8.30;99.90;;;;;;4963202;28;20592;-32
2021/12/24 06:09:49;;;;;;;52.97;16.90;;;8.30;99.90;;;;;;5000910;28;20587;-32
2021/12/24 06:12:15;;;;;;;54.87;17.30;;;8.30;99.90;;;;;;5007807;28;20045;-31
2021/12/24 06:14:44;;;;;;;55.87;17.30;;;8.30;99.90;;;;;;5007545;28;20054;-32
2021/12/24 06:17:15;;;;;;;58.37;18.17;;;8.30;99.90;;;;;;4991424;28;20046;-31
2021/12/24 06:19:41;;;;;;;47.78;16.25;;;8.40;99.90;;;;;;5009460;28;20057;-32
2021/12/24 06:22:06;;;;;;;48.37;16.60;;;8.30;99.90;;;;;;5011231;28;20157;-32
2021/12/24 06:24:32;;;;;;;58.90;16.60;;;8.30;99.90;;;;;;4993205;28;20046;-31
2021/12/24 06:26:58;;;;;;;51.00;15.83;;;8.30;99.90;;;;;;4955696;28;20120;-31
2021/12/24 06:29:24;;;;;;;53.17;15.77;;;8.30;99.90;;;;;;4971668;28;20079;-31
2021/12/24 06:31:50;;;;;;;51.07;15.20;;;8.30;99.90;;;;;;4972459;28;20038;-32
2021/12/24 06:34:17;;;;;;;55.70;15.17;;;8.20;99.90;;;;;;4971562;28;20569;-31
2021/12/24 06:36:44;;;;;;;42.00;14.03;;;8.30;99.90;;;;;;4964528;28;20086;-32
2021/12/24 06:39:11;;;;;;;42.30;14.20;;;8.30;99.90;;;;;;4989906;28;20042;-32
2021/12/24 06:41:37;;;;;;;42.53;12.87;;;8.30;99.90;;;;;;4972135;28;20133;-31
2021/12/24 06:44:04;;;;;;;48.30;14.37;;;8.30;99.90;;;;;;4971284;28;20059;-31
2021/12/24 06:46:31;;;;;;;47.47;14.03;;;8.30;99.90;;;;;;4958191;28;20055;-32
2021/12/24 06:48:56;;;;;;;44.60;12.80;;;8.20;99.90;;;;;;4969727;28;20055;-31
2021/12/24 06:51:23;;;;;;;49.10;14.57;;;8.20;99.90;;;;;;4975295;28;20501;-31
2021/12/24 06:53:49;;;;;;;50.70;13.67;;;8.20;99.90;;;;;;4990905;28;20054;-31
2021/12/24 06:56:15;;;;;;;51.53;13.90;;;8.20;99.90;;;;;;4982222;28;20045;-32
2021/12/24 06:58:41;;;;;;;49.47;14.40;;;8.20;99.90;;;;;;4985810;28;20520;-32
2021/12/24 07:01:07;;;;;;;48.73;14.70;;;8.20;99.90;;;;;;4990890;28;20043;-32
2021/12/24 07:03:33;;;;;;;55.17;15.17;;;8.20;99.90;;;;;;4990405;28;20054;-31
2021/12/24 07:05:59;;;;;;;49.07;14.70;;;8.20;99.90;;;;;;4983019;28;20441;-32
2021/12/24 07:08:25;;;;;;;41.43;13.57;;;8.20;99.90;;;;;;4974799;28;20057;-32
2021/12/24 07:10:51;;;;;;;46.90;14.87;;;8.20;99.90;;;;;;4976206;28;20078;-32
2021/12/24 07:13:17;;;;;;;43.07;14.87;;;8.20;99.90;;;;;;4970624;28;20055;-32
2021/12/24 07:15:43;;;;;;;45.27;14.83;;;8.20;99.90;;;;;;4984334;28;20054;-32
2021/12/24 07:18:09;;;;;;;44.70;14.60;;;8.20;99.90;;;;;;4974456;28;20092;-31
2021/12/24 07:20:35;;;;;;;40.73;14.03;;;8.20;99.90;;;;;;4990812;28;20057;-31
2021/12/24 07:23:01;;;;;;;42.33;13.83;;;8.20;99.90;;;;;;4989824;28;20417;-32
2021/12/24 07:25:26;;;;;;;38.70;13.47;;;8.20;99.90;;;;;;4990843;28;20042;-31
2021/12/24 07:27:53;;;;;;;29.67;12.07;;;8.20;99.90;;;;;;4990406;28;20053;-32
2021/12/24 07:30:20;;;;;;;35.73;13.70;;;8.20;99.90;;;;;;5009553;28;20108;-32
2021/12/24 07:32:46;;;;;;;35.07;12.53;;;8.10;99.90;;;;;;5009264;28;20129;-32
2021/12/24 07:35:12;;;;;;;27.17;11.03;;;8.20;99.90;;;;;;5009806;28;20062;-32
2021/12/24 07:37:39;;;;;;;38.47;12.83;;;8.10;99.90;;;;;;4994233;28;20057;-32
2021/12/24 07:40:06;;;;;;;32.53;11.60;;;8.10;99.90;;;;;;5009851;28;20652;-31
2021/12/24 07:42:33;;;;;;;25.30;10.13;;;8.10;99.90;;;;;;5008533;28;20042;-32
2021/12/24 07:44:58;;;;;;;22.67;9.77;;;8.10;99.90;;;;;;4992451;28;20053;-31
2021/12/24 07:47:31;;;;;;;20.30;8.27;;;8.10;99.90;;;;;;4992993;28;20044;-32
2021/12/24 07:50:03;;;;;;;21.83;7.77;;;8.10;99.90;;;;;;5009887;28;20100;-31
2021/12/24 07:52:30;;;;;;;21.43;7.70;;;8.10;99.90;;;;;;5008776;28;20516;-32
2021/12/24 07:54:56;;;;;;;17.63;7.00;;;8.10;99.90;;;;;;5009732;28;20050;-31
2021/12/24 07:57:23;;;;;;;15.20;6.70;;;8.10;99.90;;;;;;4991777;28;20468;-32
2021/12/24 07:59:50;;;;;;;19.20;7.30;;;8.10;99.90;;;;;;5008578;28;20085;-32
2021/12/24 08:02:18;;;;;;;16.40;7.20;;;8.10;99.90;;;;;;5006979;28;20049;-31
2021/12/24 08:04:46;;;;;;;20.20;8.10;;;8.10;99.90;;;;;;5000206;28;20451;-32
2021/12/24 08:07:13;;;;;;;21.97;8.30;;;8.10;99.90;;;;;;4991747;28;20046;-32
2021/12/24 08:09:39;;;;;;;25.63;8.10;;;8.10;99.90;;;;;;5002563;28;20053;-31
2021/12/24 08:12:07;;;;;;;22.47;8.47;;;8.10;99.90;;;;;;4987622;28;20278;-32
2021/12/24 08:14:33;;;;;;;20.33;9.13;;;8.10;99.90;;;;;;5005196;28;20048;-32
2021/12/24 08:16:58;;;;;;;21.23;8.60;;;8.00;99.90;;;;;;4991825;28;20119;-32
2021/12/24 08:19:24;;;;;;;23.97;9.87;;;8.10;99.90;;;;;;5006670;28;20520;-31
2021/12/24 08:21:50;;;;;;;26.53;9.57;;;8.00;99.90;;;;;;5008451;28;20088;-32
2021/12/24 08:24:16;;;;;;;22.37;9.60;;;8.10;99.90;;;;;;5007512;28;20038;-32
2021/12/24 08:26:42;;;;;;;26.03;9.63;;;8.10;99.90;;;;;;4989321;28;20064;-32
2021/12/24 08:29:08;;;;;;;26.83;9.43;;;7.90;99.90;;;;;;4987757;28;20050;-32
2021/12/24 08:31:35;;;;;;;25.50;8.77;;;8.00;99.90;;;;;;4970132;28;20054;-32
2021/12/24 08:34:03;;;;;;;24.23;8.63;;;8.10;99.90;;;;;;4987790;28;20039;-32
2021/12/24 08:36:28;;;;;;;29.03;9.37;;;8.00;99.90;;;;;;4974406;28;20050;-31
2021/12/24 08:38:55;;;;;;;28.50;9.57;;;8.00;99.90;;;;;;4984761;28;20050;-32
2021/12/24 08:41:22;;;;;;;30.23;9.30;;;8.00;99.90;;;;;;4987431;28;20042;-32
2021/12/24 08:43:48;;;;;;;30.63;9.47;;;8.00;99.90;;;;;;4981404;28;20042;-32
2021/12/24 08:46:14;;;;;;;34.73;9.43;;;8.00;99.90;;;;;;4976089;28;20031;-32
2021/12/24 08:48:40;;;;;;;35.87;9.83;;;8.00;99.90;;;;;;4980198;28;20070;-32
2021/12/24 08:51:06;;;;;;;28.83;9.50;;;8.00;99.90;;;;;;4988119;28;20065;-32
2021/12/24 08:53:32;;;;;;;30.40;9.83;;;8.00;99.90;;;;;;4967711;28;20565;-31
2021/12/24 08:55:58;;;;;;;38.20;9.10;;;8.10;99.90;;;;;;4989114;28;20062;-31
2021/12/24 08:58:24;;;;;;;29.17;9.80;;;7.90;99.90;;;;;;4972137;28;20517;-32
2021/12/24 09:00:49;;;;;;;29.30;9.63;;;8.00;99.90;;;;;;4976955;28;20051;-29
2021/12/24 09:03:15;;;;;;;32.20;9.43;;;8.00;99.90;;;;;;4961855;28;20052;-29
2021/12/24 09:05:41;;;;;;;35.27;10.10;;;8.00;99.90;;;;;;4985347;28;20481;-29
2021/12/24 09:08:07;;;;;;;31.50;9.37;;;8.00;99.90;;;;;;4955537;28;20381;-29
2021/12/24 09:10:33;;;;;;;31.80;10.03;;;8.00;99.90;;;;;;4968775;28;20536;-29
2021/12/24 09:13:00;;;;;;;27.43;9.57;;;8.00;99.90;;;;;;4968054;28;20046;-29
2021/12/24 09:15:30;;;;;;;28.07;9.53;;;8.00;99.90;;;;;;4971129;28;20302;-29
2021/12/24 09:18:00;;;;;;;29.10;9.67;;;8.00;99.90;;;;;;4964045;28;20401;-29
2021/12/24 09:20:31;;;;;;;30.45;9.57;;;8.00;99.90;;;;;;4987731;28;20712;-29
2021/12/24 09:22:59;;;;;;;23.80;8.43;;;8.00;99.90;;;;;;4985528;28;20457;-29
2021/12/24 09:25:26;;;;;;;16.67;7.40;;;8.00;99.90;;;;;;4988697;28;20049;-29
2021/12/24 09:27:53;;;;;;;25.07;7.70;;;8.00;99.90;;;;;;4952925;28;20407;-29
2021/12/24 09:30:19;;;;;;;19.50;6.83;;;8.00;99.90;;;;;;4988278;28;20081;-30
2021/12/24 09:32:45;;;;;;;12.40;6.27;;;8.00;99.90;;;;;;4961392;28;20042;-29
2021/12/24 09:35:11;;;;;;;16.03;6.30;;;8.00;99.90;;;;;;4971069;28;20042;-29
2021/12/24 09:37:38;;;;;;;4.80;3.17;;;7.90;99.90;;;;;;4966177;28;20144;-29
2021/12/24 09:40:06;;;;;;;2.67;2.10;;;7.90;99.90;;;;;;4986915;28;20043;-29
2021/12/24 09:42:34;;;;;;;3.33;2.40;;;7.90;99.90;;;;;;4986301;28;20287;-29
2021/12/24 09:45:00;;;;;;;2.47;2.27;;;7.70;99.90;;;;;;4969779;28;20054;-29
2021/12/24 09:47:25;;;;;;;3.03;2.50;;;7.70;99.90;;;;;;4970682;28;20046;-30
2021/12/24 09:49:52;;;;;;;3.50;2.73;;;7.60;99.90;;;;;;4987338;28;20117;-29
2021/12/24 09:52:19;;;;;;;3.90;3.17;;;7.50;99.90;;;;;;4967611;28;20891;-29
2021/12/24 09:54:46;;;;;;;3.07;2.57;;;7.50;99.90;;;;;;4974149;28;20081;-29
2021/12/24 09:57:13;;;;;;;3.20;2.43;;;7.40;99.90;;;;;;4975427;28;20047;-29
2021/12/24 09:59:39;;;;;;;4.03;2.70;;;7.40;99.90;;;;;;4991393;28;20054;-30
2021/12/24 10:02:14;;;;;;;4.10;2.63;;;7.30;99.90;;;;;;4984379;28;20066;-29
2021/12/24 10:04:40;;;;;;;3.00;2.70;;;7.30;99.90;;;;;;4991519;28;20121;-29
2021/12/24 10:07:09;;;;;;;3.57;2.37;;;7.30;99.90;;;;;;4975617;28;20078;-29
2021/12/24 10:09:36;;;;;;;3.27;2.53;;;7.20;99.90;;;;;;4990818;28;20387;-29
2021/12/24 10:12:08;;;;;;;2.53;2.27;;;7.20;99.90;;;;;;4991498;28;20502;-28
2021/12/24 10:14:46;;;;;;;2.77;2.40;;;7.10;99.90;;;;;;4990297;28;20085;-29
2021/12/24 10:17:18;;;;;;;2.90;2.57;;;7.10;99.90;;;;;;4975227;28;20417;-29
2021/12/24 10:19:50;;;;;;;2.40;2.07;;;7.10;99.90;;;;;;4990846;28;20085;-29
2021/12/24 10:22:16;;;;;;;;;;;7.10;99.90;;;;;;4990974;28;20050;-29
2021/12/24 10:24:42;;;;;;;3.50;2.70;;;7.00;99.90;;;;;;4990504;28;20300;-29
2021/12/24 10:27:08;;;;;;;3.20;2.50;;;6.90;99.90;;;;;;4974679;28;20533;-29
2021/12/24 10:29:38;;;;;;;3.73;2.40;;;6.90;99.90;;;;;;4990857;28;20126;-29
2021/12/24 10:32:15;;;;;;;4.10;1.97;;;6.90;99.90;;;;;;4990324;28;20193;-33
2021/12/24 10:34:43;;;;;;;3.20;2.17;;;6.90;99.90;;;;;;4990770;28;20050;-29
2021/12/24 10:37:23;;;;;;;2.27;1.80;;;6.80;99.90;;;;;;4973868;28;20517;-28
2021/12/24 10:39:52;;;;;;;2.90;2.13;;;6.80;99.90;;;;;;4990475;28;20085;-28
2021/12/24 10:42:27;;;;;;;3.50;2.30;;;6.70;99.90;;;;;;4989993;28;20121;-29
2021/12/24 10:44:54;;;;;;;3.57;2.67;;;6.70;99.90;;;;;;4990497;28;20406;-29
2021/12/24 10:47:26;;;;;;;3.10;2.53;;;6.80;99.90;;;;;;4969764;28;20042;-29
2021/12/24 10:50:11;;;;;;;4.13;2.73;;;6.50;99.90;;;;;;4987508;28;20137;-30
2021/12/24 10:55:19;;;;;;;4.20;3.00;;;6.50;99.90;;;;;;4988004;28;20077;-29
2021/12/24 10:57:46;;;;;;;3.73;2.80;;;6.50;99.90;;;;;;4955084;28;20126;-29
2021/12/24 11:00:31;;;;;;;3.60;3.03;;;6.40;99.90;;;;;;4988136;28;20038;-28
2021/12/24 11:03:03;;;;;;;5.20;3.47;;;6.40;99.90;;;;;;4988055;28;20058;-29
2021/12/24 11:05:37;;;;;;;3.90;3.23;;;6.40;99.90;;;;;;4983657;28;20047;-28
2021/12/24 11:08:06;;;;;;;3.33;3.03;;;6.40;99.90;;;;;;4953903;28;20058;-29
2021/12/24 11:10:37;;;;;;;5.47;3.23;;;6.40;99.90;;;;;;4986881;28;20053;-29
2021/12/24 11:13:33;;;;;;;3.47;2.95;;;6.30;99.90;;;;;;4988092;28;20038;-29
2021/12/24 11:16:06;;;;;;;4.83;3.20;;;6.30;99.90;;;;;;4984199;28;20057;-28
2021/12/24 11:18:34;;;;;;;5.13;3.60;;;6.30;99.90;;;;;;4972803;28;20061;-29
2021/12/24 11:21:04;;;;;;;3.70;2.97;;;6.40;99.90;;;;;;4988802;28;20038;-28
2021/12/24 11:23:36;;;;;;;5.37;3.43;;;6.40;99.90;;;;;;4955810;28;20053;-29
2021/12/24 11:26:34;;;;;;;3.92;2.90;;;6.30;99.90;;;;;;4974454;28;20145;-28
2021/12/24 11:29:00;;;;;;;3.60;2.87;;;6.30;99.90;;;;;;4981156;28;20077;-28
2021/12/24 11:31:28;;;;;;;3.50;3.00;;;6.30;99.90;;;;;;4971179;28;20513;-28
2021/12/24 11:33:58;;;;;;;3.97;3.10;;;6.40;99.90;;;;;;4987269;28;20034;-29
2021/12/24 11:36:25;;;;;;;4.23;2.87;;;6.30;99.90;;;;;;4977516;28;20086;-29
2021/12/24 11:39:00;;;;;;;3.63;2.83;;;6.20;99.90;;;;;;4986472;28;20676;-29
2021/12/24 11:41:30;;;;;;;3.67;2.57;;;6.30;99.90;;;;;;4985855;28;20046;-29
2021/12/24 11:43:56;;;;;;;4.13;3.10;;;6.20;99.90;;;;;;4988494;28;20133;-29
2021/12/24 11:46:24;;;;;;;5.83;3.27;;;6.20;99.90;;;;;;4975513;28;20169;-29
2021/12/24 11:48:53;;;;;;;3.40;3.00;;;6.30;99.90;;;;;;4892514;28;20341;-29
2021/12/24 11:51:28;;;;;;;4.53;3.30;;;6.30;99.90;;;;;;4979369;28;20042;-28
2021/12/24 11:54:00;;;;;;;3.80;3.00;;;6.20;99.90;;;;;;4963930;28;20045;-29
2021/12/24 11:56:25;;;;;;;4.87;2.90;;;6.20;99.90;;;;;;4971392;28;20533;-29
2021/12/24 11:58:57;;;;;;;4.53;3.00;;;6.20;99.90;;;;;;4963196;28;20109;-29
2021/12/24 12:01:27;;;;;;;7.23;3.83;;;6.20;99.90;;;;;;4983836;28;20057;-29
2021/12/24 12:04:13;;;;;;;4.37;3.40;;;6.20;99.90;;;;;;4981983;28;20082;-29
2021/12/24 12:06:38;;;;;;;4.33;3.47;;;6.20;99.90;;;;;;4945467;28;20149;-29
2021/12/24 12:09:07;;;;;;;4.60;3.50;;;6.20;99.90;;;;;;4965809;28;20125;-29
2021/12/24 12:11:35;;;;;;;4.57;3.37;;;6.20;99.90;;;;;;4975096;28;20049;-28
2021/12/24 12:14:25;;;;;;;3.90;3.47;;;6.20;99.90;;;;;;4974867;28;20425;-29
2021/12/24 12:17:00;;;;;;;5.03;3.80;;;6.10;99.90;;;;;;4969392;28;20038;-29
2021/12/24 12:19:29;;;;;;;4.57;3.50;;;6.20;99.90;;;;;;4969985;28;20061;-28
2021/12/24 12:22:44;;;;;;;5.27;3.70;;;6.10;99.90;;;;;;4973911;28;20054;-29
2021/12/24 12:25:33;;;;;;;4.60;3.90;;;6.20;99.90;;;;;;4981013;28;20091;-29
2021/12/24 12:28:02;;;;;;;7.30;4.17;;;6.10;99.90;;;;;;4982324;28;20054;-29
2021/12/24 12:30:37;;;;;;;6.30;4.40;;;6.20;99.90;;;;;;4998730;28;20065;-29
2021/12/24 12:33:32;;;;;;;6.20;4.57;;;6.20;99.90;;;;;;5000170;28;20054;-29
2021/12/24 12:36:04;;;;;;;6.83;4.80;;;6.20;99.90;;;;;;4995955;28;20058;-29
2021/12/24 12:38:33;;;;;;;9.60;6.47;;;6.20;99.90;;;;;;4986681;28;20269;-29
2021/12/24 12:41:18;;;;;;;11.10;7.23;;;6.20;99.90;;;;;;5005866;28;20128;-28
2021/12/24 12:43:45;;;;;;;10.17;7.37;;;6.20;99.90;;;;;;5001807;28;20481;-29
2021/12/24 12:46:27;;;;;;;9.20;6.33;;;6.20;99.90;;;;;;4993445;28;20335;-29
2021/12/24 12:48:55;;;;;;;8.70;5.30;;;6.20;99.90;;;;;;4997494;28;20144;-29
2021/12/24 12:51:42;;;;;;;6.97;5.03;;;6.30;99.90;;;;;;4999498;28;20042;-29
2021/12/24 12:54:41;;;;;;;8.33;4.53;;;6.20;99.90;;;;;;4994018;28;20045;-29
2021/12/24 12:57:23;;;;;;;6.37;4.60;;;6.30;99.90;;;;;;4969178;28;20144;-29
2021/12/24 13:00:07;;;;;;;8.07;4.10;;;6.30;99.90;;;;;;4987505;28;20049;-29
2021/12/24 13:05:32;;;;;;;6.97;4.57;;;6.30;99.90;;;;;;5000254;28;20045;-29
2021/12/24 13:08:12;;;;;;;5.83;4.40;;;6.30;99.90;;;;;;4991843;28;20449;-28
2021/12/24 13:10:38;;;;;;;7.13;4.80;;;6.30;99.90;;;;;;4993486;28;20049;-28
2021/12/24 13:13:05;;;;;;;8.70;5.33;;;6.40;99.90;;;;;;5007590;28;20042;-29
2021/12/24 13:15:41;;;;;;;8.73;5.33;;;6.40;99.90;;;;;;5007656;28;20053;-29
2021/12/24 13:18:42;;;;;;;8.90;5.37;;;6.40;99.90;;;;;;4969273;28;20050;-29
2021/12/24 13:23:38;;;;;;;9.83;5.40;;;6.40;99.90;;;;;;5004899;28;20038;-29
2021/12/24 13:26:09;;;;;;;7.25;5.43;;;6.40;99.90;;;;;;5006709;28;20078;-29
2021/12/24 13:28:53;;;;;;;8.13;4.57;;;6.50;99.90;;;;;;4996770;28;20111;-29
2021/12/24 13:31:18;;;;;;;10.13;5.20;;;6.40;99.90;;;;;;5007559;28;20435;-29
2021/12/24 13:33:46;;;;;;;7.90;4.20;;;6.50;99.90;;;;;;5005216;28;20041;-29
2021/12/24 13:36:12;;;;;;;10.17;4.40;;;6.50;99.90;;;;;;4996862;28;20042;-29
2021/12/24 13:38:38;;;;;;;8.77;4.50;;;6.50;99.90;;;;;;4966895;28;20049;-29
2021/12/24 13:41:05;;;;;;;4.27;3.53;;;6.50;99.90;;;;;;4988981;28;20124;-29
2021/12/24 13:43:36;;;;;;;5.13;3.47;;;6.50;99.90;;;;;;5006060;28;20046;-29
2021/12/24 13:46:11;;;;;;;3.78;3.17;;;6.50;99.90;;;;;;4989019;28;20499;-29
2021/12/24 13:49:12;;;;;;;4.97;2.40;;;6.50;99.90;;;;;;4998606;28;20065;-29
2021/12/24 13:54:33;;;;;;;4.03;2.10;;;6.50;99.90;;;;;;4988021;28;20057;-29
2021/12/24 13:57:00;;;;;;;4.00;2.00;;;6.50;99.90;;;;;;4973219;28;20047;-29
2021/12/24 13:59:26;;;;;;;5.73;2.57;;;6.50;99.90;;;;;;4987403;28;20039;-29
2021/12/24 14:01:52;;;;;;;4.67;2.17;;;6.50;99.90;;;;;;5005721;28;20540;-29
2021/12/24 14:04:20;;;;;;;3.73;2.20;;;6.50;99.90;;;;;;5005911;28;20345;-29
2021/12/24 14:06:48;;;;;;;5.87;2.00;;;6.50;99.90;;;;;;4969596;28;20145;-28
2021/12/24 14:09:29;;;;;;;4.57;2.07;;;6.50;99.90;;;;;;4984879;28;20524;-29
2021/12/24 14:11:55;;;;;;;3.28;2.13;;;6.50;99.90;;;;;;4986178;28;20046;-29
2021/12/24 14:14:29;;;;;;;6.57;1.27;;;6.50;99.90;;;;;;4990777;28;20046;-28
2021/12/24 14:17:33;;;;;;;4.40;0.83;;;6.50;99.90;;;;;;4992038;28;20049;-29
2021/12/24 14:20:09;;;;;;;5.70;0.67;;;6.40;99.90;;;;;;5005901;28;20062;-28
2021/12/24 14:22:34;;;;;;;4.90;0.40;;;6.40;99.90;;;;;;5005797;28;20405;-29
2021/12/24 14:25:00;;;;;;;6.60;0.27;;;6.40;99.90;;;;;;5006517;28;20045;-28
2021/12/24 14:27:29;;;;;;;7.17;0.47;;;6.30;99.90;;;;;;4989954;28;20050;-29
2021/12/24 14:30:00;;;;;;;4.93;0.50;;;6.30;99.90;;;;;;5006923;28;20187;-29
2021/12/24 14:32:49;;;;;;;3.50;0.85;;;6.30;99.90;;;;;;5004582;28;20149;-29
2021/12/24 14:35:21;;;;;;;7.60;0.80;;;6.20;99.90;;;;;;5006230;28;20489;-29
2021/12/24 14:37:59;;;;;;;5.90;0.53;;;6.20;99.90;;;;;;4990485;28;20564;-29
2021/12/24 14:40:27;;;;;;;2.33;0.50;;;6.20;99.90;;;;;;4990302;28;20053;-29
2021/12/24 14:42:54;;;;;;;2.83;0.30;;;6.20;99.90;;;;;;5008833;28;20049;-28